sensor_id;sensor_type;location;lat;lon;timestamp;P1;durP1;ratioP1;P2;durP2;ratioP2
65463;SDS011;52063;45.110;9.870;2023-01-06T00:00:25;14.20;;;11.40;;
65463;SDS011;52063;45.110;9.870;2023-01-06T00:02:51;14.45;;;12.00;;
65463;SDS011;52063;45.110;9.870;2023-01-06T00:05:17;15.07;;;11.20;;
65463;SDS011;52063;45.110;9.870;2023-01-06T00:07:42;14.90;;;11.13;;
65463;SDS011;52063;45.110;9.870;2023-01-06T00:10:10;15.00;;;11.43;;
65463;SDS011;52063;45.110;9.870;2023-01-06T00:12:36;14.77;;;11.20;;
65463;SDS011;52063;45.110;9.870;2023-01-06T00:15:02;14.70;;;11.60;;
65463;SDS011;52063;45.110;9.870;2023-01-06T00:17:27;15.57;;;10.98;;
65463;SDS011;52063;45.110;9.870;2023-01-06T00:19:53;14.37;;;11.00;;
65463;SDS011;52063;45.110;9.870;2023-01-06T00:22:18;13.57;;;10.70;;
65463;SDS011;52063;45.110;9.870;2023-01-06T00:24:44;13.68;;;10.68;;
65463;SDS011;52063;45.110;9.870;2023-01-06T00:27:09;13.47;;;10.47;;
65463;SDS011;52063;45.110;9.870;2023-01-06T00:29:34;14.57;;;10.97;;
65463;SDS011;52063;45.110;9.870;2023-01-06T00:32:00;14.80;;;11.63;;
65463;SDS011;52063;45.110;9.870;2023-01-06T00:34:27;13.13;;;11.20;;
65463;SDS011;52063;45.110;9.870;2023-01-06T00:36:53;14.52;;;11.43;;
65463;SDS011;52063;45.110;9.870;2023-01-06T00:39:19;12.48;;;10.45;;
65463;SDS011;52063;45.110;9.870;2023-01-06T00:41:45;15.27;;;11.23;;
65463;SDS011;52063;45.110;9.870;2023-01-06T00:44:29;13.10;;;10.90;;
65463;SDS011;52063;45.110;9.870;2023-01-06T00:46:55;13.77;;;10.90;;
65463;SDS011;52063;45.110;9.870;2023-01-06T00:49:20;14.03;;;11.10;;
65463;SDS011;52063;45.110;9.870;2023-01-06T00:51:46;14.30;;;10.83;;
65463;SDS011;52063;45.110;9.870;2023-01-06T00:54:12;15.27;;;11.80;;
65463;SDS011;52063;45.110;9.870;2023-01-06T00:56:39;15.27;;;12.35;;
65463;SDS011;52063;45.110;9.870;2023-01-06T00:59:08;13.80;;;11.05;;
65463;SDS011;52063;45.110;9.870;2023-01-06T01:01:34;14.02;;;11.70;;
65463;SDS011;52063;45.110;9.870;2023-01-06T01:04:00;13.43;;;11.20;;
65463;SDS011;52063;45.110;9.870;2023-01-06T01:06:26;14.65;;;11.55;;
65463;SDS011;52063;45.110;9.870;2023-01-06T01:08:55;13.10;;;10.43;;
65463;SDS011;52063;45.110;9.870;2023-01-06T01:11:22;15.02;;;11.80;;
65463;SDS011;52063;45.110;9.870;2023-01-06T01:14:07;14.52;;;10.88;;
65463;SDS011;52063;45.110;9.870;2023-01-06T01:16:32;13.68;;;10.95;;
65463;SDS011;52063;45.110;9.870;2023-01-06T01:18:58;14.20;;;11.43;;
65463;SDS011;52063;45.110;9.870;2023-01-06T01:21:24;13.43;;;11.23;;
65463;SDS011;52063;45.110;9.870;2023-01-06T01:23:50;12.20;;;10.30;;
65463;SDS011;52063;45.110;9.870;2023-01-06T01:26:15;13.73;;;10.90;;
65463;SDS011;52063;45.110;9.870;2023-01-06T01:28:41;13.27;;;10.93;;
65463;SDS011;52063;45.110;9.870;2023-01-06T01:31:06;15.05;;;11.10;;
65463;SDS011;52063;45.110;9.870;2023-01-06T01:33:32;14.23;;;10.87;;
65463;SDS011;52063;45.110;9.870;2023-01-06T01:36:03;13.50;;;10.43;;
65463;SDS011;52063;45.110;9.870;2023-01-06T01:38:30;13.23;;;10.85;;
65463;SDS011;52063;45.110;9.870;2023-01-06T01:40:55;12.73;;;10.60;;
65463;SDS011;52063;45.110;9.870;2023-01-06T01:43:21;13.50;;;11.15;;
65463;SDS011;52063;45.110;9.870;2023-01-06T01:45:48;13.80;;;11.10;;
65463;SDS011;52063;45.110;9.870;2023-01-06T01:48:25;14.50;;;11.48;;
65463;SDS011;52063;45.110;9.870;2023-01-06T01:50:53;12.50;;;10.30;;
65463;SDS011;52063;45.110;9.870;2023-01-06T01:53:25;14.10;;;11.35;;
65463;SDS011;52063;45.110;9.870;2023-01-06T01:55:52;12.33;;;10.17;;
65463;SDS011;52063;45.110;9.870;2023-01-06T01:58:24;13.73;;;10.68;;
65463;SDS011;52063;45.110;9.870;2023-01-06T02:00:51;11.88;;;9.95;;
65463;SDS011;52063;45.110;9.870;2023-01-06T02:03:17;12.20;;;10.27;;
65463;SDS011;52063;45.110;9.870;2023-01-06T02:05:47;13.10;;;10.57;;
65463;SDS011;52063;45.110;9.870;2023-01-06T02:10:49;13.65;;;11.48;;
65463;SDS011;52063;45.110;9.870;2023-01-06T02:13:15;12.97;;;10.93;;
65463;SDS011;52063;45.110;9.870;2023-01-06T02:15:41;12.60;;;10.35;;
65463;SDS011;52063;45.110;9.870;2023-01-06T02:18:23;12.83;;;10.67;;
65463;SDS011;52063;45.110;9.870;2023-01-06T02:20:58;14.30;;;10.40;;
65463;SDS011;52063;45.110;9.870;2023-01-06T02:49:08;12.68;;;10.43;;
65463;SDS011;52063;45.110;9.870;2023-01-06T02:54:37;12.48;;;10.00;;
65463;SDS011;52063;45.110;9.870;2023-01-06T02:59:38;12.97;;;10.10;;
65463;SDS011;52063;45.110;9.870;2023-01-06T03:02:09;12.68;;;10.15;;
65463;SDS011;52063;45.110;9.870;2023-01-06T03:04:38;12.00;;;10.25;;
65463;SDS011;52063;45.110;9.870;2023-01-06T03:07:06;12.98;;;10.07;;
65463;SDS011;52063;45.110;9.870;2023-01-06T03:09:35;12.80;;;10.85;;
65463;SDS011;52063;45.110;9.870;2023-01-06T03:12:05;10.60;;;9.37;;
65463;SDS011;52063;45.110;9.870;2023-01-06T03:14:34;13.45;;;10.27;;
65463;SDS011;52063;45.110;9.870;2023-01-06T03:17:02;11.15;;;9.73;;
65463;SDS011;52063;45.110;9.870;2023-01-06T03:19:29;12.10;;;9.80;;
65463;SDS011;52063;45.110;9.870;2023-01-06T03:21:56;11.68;;;9.93;;
65463;SDS011;52063;45.110;9.870;2023-01-06T03:24:22;11.23;;;9.80;;
65463;SDS011;52063;45.110;9.870;2023-01-06T03:26:48;11.88;;;10.45;;
65463;SDS011;52063;45.110;9.870;2023-01-06T03:29:15;13.82;;;9.70;;
65463;SDS011;52063;45.110;9.870;2023-01-06T03:42:36;11.07;;;9.45;;
65463;SDS011;52063;45.110;9.870;2023-01-06T03:50:48;12.20;;;10.13;;
65463;SDS011;52063;45.110;9.870;2023-01-06T03:53:37;12.18;;;10.32;;
65463;SDS011;52063;45.110;9.870;2023-01-06T03:59:03;12.40;;;10.35;;
65463;SDS011;52063;45.110;9.870;2023-01-06T04:01:30;12.77;;;9.37;;
65463;SDS011;52063;45.110;9.870;2023-01-06T04:03:56;11.80;;;10.18;;
65463;SDS011;52063;45.110;9.870;2023-01-06T04:06:25;12.23;;;10.25;;
65463;SDS011;52063;45.110;9.870;2023-01-06T04:08:51;10.47;;;9.30;;
65463;SDS011;52063;45.110;9.870;2023-01-06T04:11:17;11.20;;;9.20;;
65463;SDS011;52063;45.110;9.870;2023-01-06T04:14:02;10.60;;;9.50;;
65463;SDS011;52063;45.110;9.870;2023-01-06T04:16:27;11.97;;;9.47;;
65463;SDS011;52063;45.110;9.870;2023-01-06T04:18:53;12.52;;;10.43;;
65463;SDS011;52063;45.110;9.870;2023-01-06T04:21:18;11.83;;;9.47;;
65463;SDS011;52063;45.110;9.870;2023-01-06T04:23:43;10.70;;;9.60;;
65463;SDS011;52063;45.110;9.870;2023-01-06T04:26:09;11.17;;;9.50;;
65463;SDS011;52063;45.110;9.870;2023-01-06T04:28:42;11.82;;;9.85;;
65463;SDS011;52063;45.110;9.870;2023-01-06T04:31:07;10.63;;;9.23;;
65463;SDS011;52063;45.110;9.870;2023-01-06T04:33:37;10.50;;;9.27;;
65463;SDS011;52063;45.110;9.870;2023-01-06T04:36:04;10.27;;;9.13;;
65463;SDS011;52063;45.110;9.870;2023-01-06T04:38:32;12.25;;;9.80;;
65463;SDS011;52063;45.110;9.870;2023-01-06T04:40:57;11.27;;;10.07;;
65463;SDS011;52063;45.110;9.870;2023-01-06T04:43:23;12.10;;;10.13;;
65463;SDS011;52063;45.110;9.870;2023-01-06T04:45:48;11.57;;;9.80;;
65463;SDS011;52063;45.110;9.870;2023-01-06T04:48:14;11.20;;;9.53;;
65463;SDS011;52063;45.110;9.870;2023-01-06T04:50:39;11.00;;;9.75;;
65463;SDS011;52063;45.110;9.870;2023-01-06T04:53:05;11.33;;;9.50;;
65463;SDS011;52063;45.110;9.870;2023-01-06T04:55:31;12.15;;;9.60;;
65463;SDS011;52063;45.110;9.870;2023-01-06T04:57:57;11.80;;;9.37;;
65463;SDS011;52063;45.110;9.870;2023-01-06T05:00:22;12.07;;;9.00;;
65463;SDS011;52063;45.110;9.870;2023-01-06T05:02:48;10.73;;;9.38;;
65463;SDS011;52063;45.110;9.870;2023-01-06T05:05:14;11.65;;;9.90;;
65463;SDS011;52063;45.110;9.870;2023-01-06T05:07:40;11.73;;;9.17;;
65463;SDS011;52063;45.110;9.870;2023-01-06T05:10:05;9.75;;;8.75;;
65463;SDS011;52063;45.110;9.870;2023-01-06T05:12:32;10.47;;;9.37;;
65463;SDS011;52063;45.110;9.870;2023-01-06T05:14:58;10.07;;;8.45;;
65463;SDS011;52063;45.110;9.870;2023-01-06T05:17:24;10.27;;;9.18;;
65463;SDS011;52063;45.110;9.870;2023-01-06T05:19:50;10.90;;;9.73;;
65463;SDS011;52063;45.110;9.870;2023-01-06T05:22:15;9.80;;;8.77;;
65463;SDS011;52063;45.110;9.870;2023-01-06T05:24:40;10.77;;;8.43;;
65463;SDS011;52063;45.110;9.870;2023-01-06T05:27:06;10.00;;;8.90;;
65463;SDS011;52063;45.110;9.870;2023-01-06T05:29:32;10.13;;;8.82;;
65463;SDS011;52063;45.110;9.870;2023-01-06T05:31:57;10.47;;;9.20;;
65463;SDS011;52063;45.110;9.870;2023-01-06T05:34:23;9.97;;;8.83;;
65463;SDS011;52063;45.110;9.870;2023-01-06T05:36:48;11.25;;;8.80;;
65463;SDS011;52063;45.110;9.870;2023-01-06T05:39:14;10.90;;;8.30;;
65463;SDS011;52063;45.110;9.870;2023-01-06T05:41:39;9.83;;;8.17;;
65463;SDS011;52063;45.110;9.870;2023-01-06T05:44:05;9.73;;;8.70;;
65463;SDS011;52063;45.110;9.870;2023-01-06T05:46:30;12.37;;;8.67;;
65463;SDS011;52063;45.110;9.870;2023-01-06T05:48:56;10.27;;;8.43;;
65463;SDS011;52063;45.110;9.870;2023-01-06T05:51:21;11.47;;;8.90;;
65463;SDS011;52063;45.110;9.870;2023-01-06T05:53:47;8.77;;;7.88;;
65463;SDS011;52063;45.110;9.870;2023-01-06T05:56:17;11.17;;;8.80;;
65463;SDS011;52063;45.110;9.870;2023-01-06T05:58:44;9.77;;;8.45;;
65463;SDS011;52063;45.110;9.870;2023-01-06T06:01:18;9.18;;;8.18;;
65463;SDS011;52063;45.110;9.870;2023-01-06T06:03:43;9.30;;;8.20;;
65463;SDS011;52063;45.110;9.870;2023-01-06T06:06:09;10.80;;;8.10;;
65463;SDS011;52063;45.110;9.870;2023-01-06T06:08:35;9.77;;;7.93;;
65463;SDS011;52063;45.110;9.870;2023-01-06T06:11:03;10.10;;;8.17;;
65463;SDS011;52063;45.110;9.870;2023-01-06T06:13:29;8.93;;;7.93;;
65463;SDS011;52063;45.110;9.870;2023-01-06T06:16:08;9.38;;;7.80;;
65463;SDS011;52063;45.110;9.870;2023-01-06T06:18:35;8.73;;;7.67;;
65463;SDS011;52063;45.110;9.870;2023-01-06T06:21:07;9.02;;;7.45;;
65463;SDS011;52063;45.110;9.870;2023-01-06T06:23:33;8.60;;;7.57;;
65463;SDS011;52063;45.110;9.870;2023-01-06T06:25:59;9.00;;;7.68;;
65463;SDS011;52063;45.110;9.870;2023-01-06T06:28:24;9.00;;;8.10;;
65463;SDS011;52063;45.110;9.870;2023-01-06T06:30:50;8.87;;;7.70;;
65463;SDS011;52063;45.110;9.870;2023-01-06T06:33:15;8.70;;;7.72;;
65463;SDS011;52063;45.110;9.870;2023-01-06T06:35:41;8.43;;;7.53;;
65463;SDS011;52063;45.110;9.870;2023-01-06T06:38:06;8.10;;;7.30;;
65463;SDS011;52063;45.110;9.870;2023-01-06T06:40:31;10.52;;;8.18;;
65463;SDS011;52063;45.110;9.870;2023-01-06T06:42:57;9.50;;;8.03;;
65463;SDS011;52063;45.110;9.870;2023-01-06T06:45:22;8.53;;;7.57;;
65463;SDS011;52063;45.110;9.870;2023-01-06T06:47:48;9.57;;;7.90;;
65463;SDS011;52063;45.110;9.870;2023-01-06T06:50:18;10.25;;;8.30;;
65463;SDS011;52063;45.110;9.870;2023-01-06T06:52:43;8.73;;;7.10;;
65463;SDS011;52063;45.110;9.870;2023-01-06T06:55:08;8.30;;;7.43;;
65463;SDS011;52063;45.110;9.870;2023-01-06T06:57:34;8.43;;;7.30;;
65463;SDS011;52063;45.110;9.870;2023-01-06T06:59:59;6.67;;;5.97;;
65463;SDS011;52063;45.110;9.870;2023-01-06T07:02:25;7.33;;;6.53;;
65463;SDS011;52063;45.110;9.870;2023-01-06T07:04:50;7.88;;;6.70;;
65463;SDS011;52063;45.110;9.870;2023-01-06T07:07:15;7.57;;;6.20;;
65463;SDS011;52063;45.110;9.870;2023-01-06T07:09:41;7.27;;;6.03;;
65463;SDS011;52063;45.110;9.870;2023-01-06T07:12:06;7.83;;;5.63;;
65463;SDS011;52063;45.110;9.870;2023-01-06T07:14:32;5.63;;;5.13;;
65463;SDS011;52063;45.110;9.870;2023-01-06T07:17:00;6.20;;;5.33;;
65463;SDS011;52063;45.110;9.870;2023-01-06T07:19:26;6.53;;;5.82;;
65463;SDS011;52063;45.110;9.870;2023-01-06T07:21:52;6.63;;;5.55;;
65463;SDS011;52063;45.110;9.870;2023-01-06T07:24:17;5.97;;;5.37;;
65463;SDS011;52063;45.110;9.870;2023-01-06T07:26:42;6.13;;;5.53;;
65463;SDS011;52063;45.110;9.870;2023-01-06T07:29:08;7.40;;;5.30;;
65463;SDS011;52063;45.110;9.870;2023-01-06T07:31:33;5.63;;;5.13;;
65463;SDS011;52063;45.110;9.870;2023-01-06T07:33:59;5.95;;;5.32;;
65463;SDS011;52063;45.110;9.870;2023-01-06T07:36:24;6.53;;;5.70;;
65463;SDS011;52063;45.110;9.870;2023-01-06T07:38:50;6.73;;;6.00;;
65463;SDS011;52063;45.110;9.870;2023-01-06T07:41:15;7.03;;;6.13;;
65463;SDS011;52063;45.110;9.870;2023-01-06T07:43:41;6.53;;;5.83;;
65463;SDS011;52063;45.110;9.870;2023-01-06T07:46:06;6.32;;;5.63;;
65463;SDS011;52063;45.110;9.870;2023-01-06T07:48:33;6.23;;;5.63;;
65463;SDS011;52063;45.110;9.870;2023-01-06T07:50:58;6.72;;;5.85;;
65463;SDS011;52063;45.110;9.870;2023-01-06T07:53:24;6.20;;;5.60;;
65463;SDS011;52063;45.110;9.870;2023-01-06T07:55:50;8.63;;;5.93;;
65463;SDS011;52063;45.110;9.870;2023-01-06T07:58:16;8.32;;;5.65;;
65463;SDS011;52063;45.110;9.870;2023-01-06T08:00:42;7.28;;;6.18;;
65463;SDS011;52063;45.110;9.870;2023-01-06T08:03:08;6.37;;;5.77;;
65463;SDS011;52063;45.110;9.870;2023-01-06T08:05:39;7.00;;;6.18;;
65463;SDS011;52063;45.110;9.870;2023-01-06T08:08:08;7.32;;;5.93;;
65463;SDS011;52063;45.110;9.870;2023-01-06T08:10:37;6.85;;;6.05;;
65463;SDS011;52063;45.110;9.870;2023-01-06T08:13:07;9.17;;;6.37;;
65463;SDS011;52063;45.110;9.870;2023-01-06T08:15:34;6.30;;;5.70;;
65463;SDS011;52063;45.110;9.870;2023-01-06T08:18:00;6.70;;;5.85;;
65463;SDS011;52063;45.110;9.870;2023-01-06T08:20:25;6.70;;;6.03;;
65463;SDS011;52063;45.110;9.870;2023-01-06T08:22:50;6.37;;;5.77;;
65463;SDS011;52063;45.110;9.870;2023-01-06T08:25:16;6.00;;;5.40;;
65463;SDS011;52063;45.110;9.870;2023-01-06T08:27:42;6.73;;;6.00;;
65463;SDS011;52063;45.110;9.870;2023-01-06T08:30:07;6.78;;;5.88;;
65463;SDS011;52063;45.110;9.870;2023-01-06T08:32:33;6.53;;;5.93;;
65463;SDS011;52063;45.110;9.870;2023-01-06T08:34:58;6.93;;;6.00;;
65463;SDS011;52063;45.110;9.870;2023-01-06T08:37:24;6.60;;;5.73;;
65463;SDS011;52063;45.110;9.870;2023-01-06T08:39:49;10.07;;;5.90;;
65463;SDS011;52063;45.110;9.870;2023-01-06T08:42:15;6.13;;;5.63;;
65463;SDS011;52063;45.110;9.870;2023-01-06T08:44:40;5.43;;;4.82;;
65463;SDS011;52063;45.110;9.870;2023-01-06T08:47:06;7.00;;;5.37;;
65463;SDS011;52063;45.110;9.870;2023-01-06T08:49:31;6.30;;;5.70;;
65463;SDS011;52063;45.110;9.870;2023-01-06T08:51:57;6.70;;;5.78;;
65463;SDS011;52063;45.110;9.870;2023-01-06T08:54:23;6.50;;;5.90;;
65463;SDS011;52063;45.110;9.870;2023-01-06T08:56:49;6.53;;;5.57;;
65463;SDS011;52063;45.110;9.870;2023-01-06T08:59:15;5.93;;;5.33;;
65463;SDS011;52063;45.110;9.870;2023-01-06T09:01:41;7.93;;;5.20;;
65463;SDS011;52063;45.110;9.870;2023-01-06T09:04:07;6.55;;;5.22;;
65463;SDS011;52063;45.110;9.870;2023-01-06T09:06:33;5.70;;;5.10;;
65463;SDS011;52063;45.110;9.870;2023-01-06T09:08:59;6.18;;;5.38;;
65463;SDS011;52063;45.110;9.870;2023-01-06T09:11:25;7.35;;;5.90;;
65463;SDS011;52063;45.110;9.870;2023-01-06T09:13:51;7.10;;;6.40;;
65463;SDS011;52063;45.110;9.870;2023-01-06T09:16:17;6.80;;;5.70;;
65463;SDS011;52063;45.110;9.870;2023-01-06T09:18:44;7.13;;;6.00;;
65463;SDS011;52063;45.110;9.870;2023-01-06T09:21:14;7.70;;;5.85;;
65463;SDS011;52063;45.110;9.870;2023-01-06T09:23:43;6.28;;;5.63;;
65463;SDS011;52063;45.110;9.870;2023-01-06T09:26:09;9.57;;;7.55;;
65463;SDS011;52063;45.110;9.870;2023-01-06T09:28:35;16.00;;;10.50;;
65463;SDS011;52063;45.110;9.870;2023-01-06T09:31:00;26.73;;;17.23;;
65463;SDS011;52063;45.110;9.870;2023-01-06T09:33:26;22.88;;;15.20;;
65463;SDS011;52063;45.110;9.870;2023-01-06T09:35:51;22.70;;;14.63;;
65463;SDS011;52063;45.110;9.870;2023-01-06T09:38:17;24.13;;;14.87;;
65463;SDS011;52063;45.110;9.870;2023-01-06T09:43:56;28.50;;;18.17;;
65463;SDS011;52063;45.110;9.870;2023-01-06T09:46:27;26.63;;;17.07;;
65463;SDS011;52063;45.110;9.870;2023-01-06T09:49:12;33.63;;;20.13;;
65463;SDS011;52063;45.110;9.870;2023-01-06T09:51:38;37.42;;;20.60;;
65463;SDS011;52063;45.110;9.870;2023-01-06T09:56:42;31.67;;;19.60;;
65463;SDS011;52063;45.110;9.870;2023-01-06T09:59:11;36.35;;;22.75;;
65463;SDS011;52063;45.110;9.870;2023-01-06T10:01:44;34.42;;;20.63;;
65463;SDS011;52063;45.110;9.870;2023-01-06T10:04:23;36.40;;;22.80;;
65463;SDS011;52063;45.110;9.870;2023-01-06T10:07:03;35.60;;;22.03;;
65463;SDS011;52063;45.110;9.870;2023-01-06T10:12:30;38.25;;;23.80;;
65463;SDS011;52063;45.110;9.870;2023-01-06T10:25:45;36.33;;;22.50;;
65463;SDS011;52063;45.110;9.870;2023-01-06T10:30:53;33.25;;;22.65;;
65463;SDS011;52063;45.110;9.870;2023-01-06T10:33:23;31.90;;;19.97;;
65463;SDS011;52063;45.110;9.870;2023-01-06T10:35:51;34.60;;;22.73;;
65463;SDS011;52063;45.110;9.870;2023-01-06T10:38:17;30.35;;;20.38;;
65463;SDS011;52063;45.110;9.870;2023-01-06T10:40:47;35.15;;;21.45;;
65463;SDS011;52063;45.110;9.870;2023-01-06T10:43:13;31.73;;;20.50;;
65463;SDS011;52063;45.110;9.870;2023-01-06T10:45:40;30.25;;;19.75;;
65463;SDS011;52063;45.110;9.870;2023-01-06T10:48:10;31.10;;;19.53;;
65463;SDS011;52063;45.110;9.870;2023-01-06T10:50:37;32.25;;;20.00;;
65463;SDS011;52063;45.110;9.870;2023-01-06T10:53:03;35.53;;;23.27;;
65463;SDS011;52063;45.110;9.870;2023-01-06T11:00:57;33.85;;;23.02;;
65463;SDS011;52063;45.110;9.870;2023-01-06T11:03:26;33.50;;;20.15;;
65463;SDS011;52063;45.110;9.870;2023-01-06T11:05:58;31.03;;;21.10;;
65463;SDS011;52063;45.110;9.870;2023-01-06T11:08:25;29.30;;;20.07;;
65463;SDS011;52063;45.110;9.870;2023-01-06T11:10:51;32.20;;;20.70;;
65463;SDS011;52063;45.110;9.870;2023-01-06T11:15:54;32.15;;;21.65;;
65463;SDS011;52063;45.110;9.870;2023-01-06T11:23:26;32.85;;;22.02;;
65463;SDS011;52063;45.110;9.870;2023-01-06T11:28:30;36.30;;;23.45;;
65463;SDS011;52063;45.110;9.870;2023-01-06T11:30:57;36.17;;;24.40;;
65463;SDS011;52063;45.110;9.870;2023-01-06T11:33:26;35.72;;;22.35;;
65463;SDS011;52063;45.110;9.870;2023-01-06T11:35:53;33.33;;;22.33;;
65463;SDS011;52063;45.110;9.870;2023-01-06T11:38:19;32.92;;;21.60;;
65463;SDS011;52063;45.110;9.870;2023-01-06T11:40:46;31.65;;;21.17;;
65463;SDS011;52063;45.110;9.870;2023-01-06T11:43:14;30.97;;;22.20;;
65463;SDS011;52063;45.110;9.870;2023-01-06T11:45:43;34.88;;;21.65;;
65463;SDS011;52063;45.110;9.870;2023-01-06T11:49:12;33.70;;;21.48;;
65463;SDS011;52063;45.110;9.870;2023-01-06T11:51:13;35.58;;;22.88;;
65463;SDS011;52063;45.110;9.870;2023-01-06T11:53:39;33.80;;;23.27;;
65463;SDS011;52063;45.110;9.870;2023-01-06T11:56:20;32.60;;;23.10;;
65463;SDS011;52063;45.110;9.870;2023-01-06T12:01:37;35.40;;;23.20;;
65463;SDS011;52063;45.110;9.870;2023-01-06T12:04:09;34.72;;;23.38;;
65463;SDS011;52063;45.110;9.870;2023-01-06T12:06:39;33.85;;;22.58;;
65463;SDS011;52063;45.110;9.870;2023-01-06T12:09:17;36.87;;;24.67;;
65463;SDS011;52063;45.110;9.870;2023-01-06T12:11:49;34.88;;;23.75;;
65463;SDS011;52063;45.110;9.870;2023-01-06T12:14:19;38.05;;;24.38;;
65463;SDS011;52063;45.110;9.870;2023-01-06T12:16:54;36.13;;;22.92;;
65463;SDS011;52063;45.110;9.870;2023-01-06T12:19:46;34.75;;;23.23;;
65463;SDS011;52063;45.110;9.870;2023-01-06T12:24:55;34.53;;;23.48;;
65463;SDS011;52063;45.110;9.870;2023-01-06T12:27:28;35.00;;;24.92;;
65463;SDS011;52063;45.110;9.870;2023-01-06T12:29:57;37.55;;;22.30;;
65463;SDS011;52063;45.110;9.870;2023-01-06T12:32:25;36.35;;;23.63;;
65463;SDS011;52063;45.110;9.870;2023-01-06T12:34:55;37.20;;;23.70;;
65463;SDS011;52063;45.110;9.870;2023-01-06T12:37:31;32.60;;;21.85;;
65463;SDS011;52063;45.110;9.870;2023-01-06T12:42:57;37.65;;;25.15;;
65463;SDS011;52063;45.110;9.870;2023-01-06T12:48:15;37.90;;;24.87;;
65463;SDS011;52063;45.110;9.870;2023-01-06T12:50:57;37.75;;;24.52;;
65463;SDS011;52063;45.110;9.870;2023-01-06T12:53:26;37.88;;;24.67;;
65463;SDS011;52063;45.110;9.870;2023-01-06T13:00:59;36.58;;;23.35;;
65463;SDS011;52063;45.110;9.870;2023-01-06T13:04:13;35.50;;;23.40;;
65463;SDS011;52063;45.110;9.870;2023-01-06T13:06:33;36.90;;;23.37;;
65463;SDS011;52063;45.110;9.870;2023-01-06T13:22:18;30.25;;;20.63;;
65463;SDS011;52063;45.110;9.870;2023-01-06T13:25:17;32.97;;;22.63;;
65463;SDS011;52063;45.110;9.870;2023-01-06T13:39:11;33.42;;;22.35;;
65463;SDS011;52063;45.110;9.870;2023-01-06T13:41:39;31.67;;;21.08;;
65463;SDS011;52063;45.110;9.870;2023-01-06T13:44:08;33.45;;;21.58;;
65463;SDS011;52063;45.110;9.870;2023-01-06T13:46:45;32.63;;;21.87;;
65463;SDS011;52063;45.110;9.870;2023-01-06T13:49:11;33.33;;;21.52;;
65463;SDS011;52063;45.110;9.870;2023-01-06T13:51:39;31.95;;;21.02;;
65463;SDS011;52063;45.110;9.870;2023-01-06T13:54:05;33.45;;;21.65;;
65463;SDS011;52063;45.110;9.870;2023-01-06T13:56:31;32.27;;;21.17;;
65463;SDS011;52063;45.110;9.870;2023-01-06T13:59:17;30.73;;;20.92;;
65463;SDS011;52063;45.110;9.870;2023-01-06T14:01:47;40.63;;;23.25;;
65463;SDS011;52063;45.110;9.870;2023-01-06T14:07:10;39.08;;;24.55;;
65463;SDS011;52063;45.110;9.870;2023-01-06T14:09:37;38.25;;;23.80;;
65463;SDS011;52063;45.110;9.870;2023-01-06T14:12:09;33.80;;;22.67;;
65463;SDS011;52063;45.110;9.870;2023-01-06T14:14:39;33.75;;;21.67;;
65463;SDS011;52063;45.110;9.870;2023-01-06T14:17:05;36.03;;;23.15;;
65463;SDS011;52063;45.110;9.870;2023-01-06T14:19:32;36.70;;;23.10;;
65463;SDS011;52063;45.110;9.870;2023-01-06T14:24:53;36.88;;;21.88;;
65463;SDS011;52063;45.110;9.870;2023-01-06T14:28:24;32.25;;;21.70;;
65463;SDS011;52063;45.110;9.870;2023-01-06T14:30:22;30.10;;;20.07;;
65463;SDS011;52063;45.110;9.870;2023-01-06T14:32:57;30.77;;;19.58;;
65463;SDS011;52063;45.110;9.870;2023-01-06T14:35:32;32.03;;;20.40;;
65463;SDS011;52063;45.110;9.870;2023-01-06T14:38:01;32.42;;;21.25;;
65463;SDS011;52063;45.110;9.870;2023-01-06T14:40:30;31.50;;;20.38;;
65463;SDS011;52063;45.110;9.870;2023-01-06T14:43:00;31.03;;;20.00;;
65463;SDS011;52063;45.110;9.870;2023-01-06T14:45:36;30.42;;;20.02;;
65463;SDS011;52063;45.110;9.870;2023-01-06T14:48:04;28.58;;;20.08;;
65463;SDS011;52063;45.110;9.870;2023-01-06T14:50:43;28.38;;;18.98;;
65463;SDS011;52063;45.110;9.870;2023-01-06T14:53:57;28.00;;;18.30;;
65463;SDS011;52063;45.110;9.870;2023-01-06T14:56:00;27.80;;;19.17;;
65463;SDS011;52063;45.110;9.870;2023-01-06T14:58:33;26.65;;;18.25;;
65463;SDS011;52063;45.110;9.870;2023-01-06T15:01:03;23.80;;;16.48;;
65463;SDS011;52063;45.110;9.870;2023-01-06T15:03:30;32.92;;;18.85;;
65463;SDS011;52063;45.110;9.870;2023-01-06T15:06:18;26.53;;;16.73;;
65463;SDS011;52063;45.110;9.870;2023-01-06T15:08:46;24.65;;;16.25;;
65463;SDS011;52063;45.110;9.870;2023-01-06T15:11:17;21.98;;;15.75;;
65463;SDS011;52063;45.110;9.870;2023-01-06T15:13:45;26.63;;;16.70;;
65463;SDS011;52063;45.110;9.870;2023-01-06T15:16:15;25.53;;;16.93;;
65463;SDS011;52063;45.110;9.870;2023-01-06T15:18:48;27.20;;;17.48;;
65463;SDS011;52063;45.110;9.870;2023-01-06T15:21:17;21.88;;;15.85;;
65463;SDS011;52063;45.110;9.870;2023-01-06T15:23:44;21.75;;;15.13;;
65463;SDS011;52063;45.110;9.870;2023-01-06T15:26:18;22.20;;;16.00;;
65463;SDS011;52063;45.110;9.870;2023-01-06T15:28:59;23.40;;;16.90;;
65463;SDS011;52063;45.110;9.870;2023-01-06T15:31:27;26.92;;;17.88;;
65463;SDS011;52063;45.110;9.870;2023-01-06T15:33:58;27.15;;;17.77;;
65463;SDS011;52063;45.110;9.870;2023-01-06T15:36:27;24.92;;;16.13;;
65463;SDS011;52063;45.110;9.870;2023-01-06T15:38:55;24.60;;;15.93;;
65463;SDS011;52063;45.110;9.870;2023-01-06T15:41:26;21.43;;;15.10;;
65463;SDS011;52063;45.110;9.870;2023-01-06T15:44:01;24.60;;;16.70;;
65463;SDS011;52063;45.110;9.870;2023-01-06T15:46:40;27.08;;;17.92;;
65463;SDS011;52063;45.110;9.870;2023-01-06T15:49:10;31.02;;;18.77;;
65463;SDS011;52063;45.110;9.870;2023-01-06T15:51:52;29.65;;;17.67;;
65463;SDS011;52063;45.110;9.870;2023-01-06T15:54:19;26.37;;;15.90;;
65463;SDS011;52063;45.110;9.870;2023-01-06T15:56:44;27.42;;;18.25;;
65463;SDS011;52063;45.110;9.870;2023-01-06T15:59:11;25.77;;;17.37;;
65463;SDS011;52063;45.110;9.870;2023-01-06T16:01:41;26.42;;;17.42;;
65463;SDS011;52063;45.110;9.870;2023-01-06T16:04:12;31.60;;;18.98;;
65463;SDS011;52063;45.110;9.870;2023-01-06T16:06:39;32.93;;;20.43;;
65463;SDS011;52063;45.110;9.870;2023-01-06T16:12:13;34.35;;;20.98;;
65463;SDS011;52063;45.110;9.870;2023-01-06T16:14:48;30.98;;;19.50;;
65463;SDS011;52063;45.110;9.870;2023-01-06T16:19:57;30.77;;;18.30;;
65463;SDS011;52063;45.110;9.870;2023-01-06T16:22:26;30.42;;;19.48;;
65463;SDS011;52063;45.110;9.870;2023-01-06T16:25:00;32.85;;;19.58;;
65463;SDS011;52063;45.110;9.870;2023-01-06T16:27:28;28.95;;;19.33;;
65463;SDS011;52063;45.110;9.870;2023-01-06T16:30:17;31.37;;;19.17;;
65463;SDS011;52063;45.110;9.870;2023-01-06T16:32:45;29.75;;;18.33;;
65463;SDS011;52063;45.110;9.870;2023-01-06T16:35:12;31.35;;;19.52;;
65463;SDS011;52063;45.110;9.870;2023-01-06T16:37:39;33.33;;;19.90;;
65463;SDS011;52063;45.110;9.870;2023-01-06T16:40:05;33.80;;;19.45;;
65463;SDS011;52063;45.110;9.870;2023-01-06T16:42:32;31.02;;;18.50;;
65463;SDS011;52063;45.110;9.870;2023-01-06T16:47:58;29.40;;;18.35;;
65463;SDS011;52063;45.110;9.870;2023-01-06T16:50:37;27.17;;;18.00;;
65463;SDS011;52063;45.110;9.870;2023-01-06T16:53:17;28.47;;;18.37;;
65463;SDS011;52063;45.110;9.870;2023-01-06T16:55:45;26.70;;;17.80;;
65463;SDS011;52063;45.110;9.870;2023-01-06T16:58:16;26.90;;;17.33;;
65463;SDS011;52063;45.110;9.870;2023-01-06T17:00:43;25.05;;;17.00;;
65463;SDS011;52063;45.110;9.870;2023-01-06T17:03:15;30.13;;;17.60;;
65463;SDS011;52063;45.110;9.870;2023-01-06T17:05:49;28.13;;;17.47;;